createdAt,value
2022-08-28T00:00:21.024Z,6.70
2022-08-28T00:02:48.124Z,5.95
2022-08-28T00:05:19.013Z,6.32
2022-08-28T00:07:47.928Z,5.80
2022-08-28T00:10:16.988Z,5.32
2022-08-28T00:12:44.816Z,5.80
2022-08-28T00:15:15.174Z,5.38
2022-08-28T00:17:42.237Z,5.68
2022-08-28T00:20:10.718Z,6.13
2022-08-28T00:22:39.136Z,6.07
2022-08-28T00:25:08.553Z,6.75
2022-08-28T00:27:55.215Z,7.07
2022-08-28T00:30:31.844Z,6.07
2022-08-28T00:33:05.091Z,6.50
2022-08-28T00:35:32.359Z,6.53
2022-08-28T00:37:59.445Z,6.85
2022-08-28T00:40:32.943Z,7.65
2022-08-28T00:43:06.033Z,7.00
2022-08-28T00:45:39.297Z,7.13
2022-08-28T00:48:06.222Z,7.07
2022-08-28T00:50:54.411Z,7.45
2022-08-28T00:53:29.978Z,7.05
2022-08-28T00:56:01.428Z,7.32
2022-08-28T00:58:31.326Z,8.13
2022-08-28T01:01:00.508Z,8.52
2022-08-28T01:03:28.396Z,8.38
2022-08-28T01:05:55.561Z,7.53
2022-08-28T01:08:23.025Z,9.20
2022-08-28T01:10:54.776Z,9.00
2022-08-28T01:13:24.254Z,8.63
2022-08-28T01:15:51.674Z,8.38
2022-08-28T01:18:20.127Z,9.00
2022-08-28T01:21:20.200Z,10.30
2022-08-28T01:23:58.232Z,8.75
2022-08-28T01:26:28.132Z,9.48
2022-08-28T01:28:58.237Z,9.50
2022-08-28T01:31:26.870Z,9.52
2022-08-28T01:33:53.728Z,8.70
2022-08-28T01:36:20.542Z,8.98
2022-08-28T01:38:52.822Z,9.27
2022-08-28T01:41:19.519Z,9.10
2022-08-28T01:43:46.273Z,8.77
2022-08-28T01:46:13.202Z,9.30
2022-08-28T01:48:43.637Z,9.05
2022-08-28T01:51:11.385Z,9.82
2022-08-28T01:53:39.240Z,10.00
2022-08-28T01:56:13.641Z,10.15
2022-08-28T01:58:41.249Z,10.18
2022-08-28T02:01:13.358Z,8.40
2022-08-28T02:03:43.133Z,8.02
2022-08-28T02:06:11.068Z,9.07
2022-08-28T02:08:38.380Z,7.82
2022-08-28T02:11:08.213Z,8.25
2022-08-28T02:13:40.139Z,7.05
2022-08-28T02:16:09.220Z,8.50
2022-08-28T02:18:37.802Z,8.05
2022-08-28T02:21:06.002Z,7.68
2022-08-28T02:23:32.801Z,7.50
2022-08-28T02:25:59.772Z,8.70
2022-08-28T02:28:26.545Z,7.68
2022-08-28T02:30:53.369Z,7.25
2022-08-28T02:33:20.177Z,6.72
2022-08-28T02:35:46.917Z,7.15
2022-08-28T02:38:14.104Z,7.03
2022-08-28T02:40:41.403Z,6.85
2022-08-28T02:43:08.181Z,7.22
2022-08-28T02:45:35.774Z,7.00
2022-08-28T02:48:03.676Z,7.60
2022-08-28T02:50:31.462Z,6.75
2022-08-28T02:52:58.669Z,7.00
2022-08-28T02:55:25.684Z,7.20
2022-08-28T02:57:52.924Z,6.70
2022-08-28T03:00:22.586Z,6.82
2022-08-28T03:02:50.054Z,6.50
2022-08-28T03:05:23.456Z,6.78
2022-08-28T03:07:51.067Z,6.53
2022-08-28T03:10:18.653Z,7.00
2022-08-28T03:12:45.477Z,6.60
2022-08-28T03:15:12.522Z,7.43
2022-08-28T03:17:39.373Z,7.28
2022-08-28T03:20:08.686Z,8.00
2022-08-28T03:22:54.784Z,8.05
2022-08-28T03:25:22.425Z,6.65
2022-08-28T03:27:49.622Z,6.38
2022-08-28T03:30:17.180Z,6.85
2022-08-28T03:32:43.846Z,7.53
2022-08-28T03:35:11.949Z,7.38
2022-08-28T03:37:38.822Z,7.05
2022-08-28T03:40:07.775Z,6.32
2022-08-28T03:42:35.233Z,8.48
2022-08-28T03:45:02.117Z,8.52
2022-08-28T03:47:29.663Z,8.52
2022-08-28T03:49:58.140Z,7.70
2022-08-28T03:52:25.065Z,7.10
2022-08-28T03:54:52.704Z,6.68
2022-08-28T03:57:21.130Z,7.03
2022-08-28T03:59:50.225Z,7.55
2022-08-28T04:02:19.211Z,6.93
2022-08-28T04:04:47.106Z,7.47
2022-08-28T04:07:13.882Z,7.55
2022-08-28T04:09:40.579Z,8.52
2022-08-28T04:12:08.699Z,8.65
2022-08-28T04:14:36.204Z,7.68
2022-08-28T04:17:03.825Z,6.97
2022-08-28T04:19:31.092Z,7.05
2022-08-28T04:21:57.822Z,7.53
2022-08-28T04:24:24.592Z,7.93
2022-08-28T04:26:51.543Z,7.75
2022-08-28T04:29:18.453Z,7.57
2022-08-28T04:31:45.408Z,7.75
2022-08-28T04:34:12.161Z,8.40
2022-08-28T04:36:38.892Z,8.48
2022-08-28T04:39:08.492Z,7.75
2022-08-28T04:41:38.569Z,7.07
2022-08-28T04:44:06.231Z,8.32
2022-08-28T04:46:33.380Z,8.75
2022-08-28T04:49:00.636Z,8.43
2022-08-28T04:51:28.204Z,8.68
2022-08-28T04:53:55.060Z,8.63
2022-08-28T04:56:21.863Z,7.78
2022-08-28T04:58:48.770Z,8.27
2022-08-28T05:01:18.820Z,8.93
2022-08-28T05:03:47.867Z,7.68
2022-08-28T05:06:16.290Z,8.18
2022-08-28T05:08:43.295Z,6.95
2022-08-28T05:11:36.048Z,8.38
2022-08-28T05:14:05.172Z,7.57
2022-08-28T05:16:33.138Z,6.97
2022-08-28T05:19:03.804Z,7.38
2022-08-28T05:21:30.608Z,7.25
2022-08-28T05:23:59.051Z,7.63
2022-08-28T05:26:27.186Z,7.88
2022-08-28T05:28:57.833Z,6.85
2022-08-28T05:31:25.874Z,6.97
2022-08-28T05:33:53.524Z,7.65
2022-08-28T05:36:22.702Z,6.80
2022-08-28T05:38:50.535Z,6.70
2022-08-28T05:41:23.431Z,5.93
2022-08-28T05:43:50.320Z,6.10
2022-08-28T05:46:17.709Z,6.25
2022-08-28T05:48:45.776Z,6.15
2022-08-28T05:51:15.349Z,6.30
2022-08-28T05:53:43.836Z,5.80
2022-08-28T05:56:12.681Z,5.60
2022-08-28T05:58:40.398Z,5.70
2022-08-28T06:01:08.797Z,5.35
2022-08-28T06:03:37.421Z,5.47
2022-08-28T06:06:04.992Z,5.25
2022-08-28T06:08:32.618Z,4.80
2022-08-28T06:11:01.767Z,6.00
2022-08-28T06:13:30.691Z,5.45
2022-08-28T06:15:58.074Z,5.95
2022-08-28T06:18:25.552Z,5.20
2022-08-28T06:20:53.687Z,5.93
2022-08-28T06:23:24.061Z,5.57
2022-08-28T06:25:52.164Z,6.38
2022-08-28T06:28:25.156Z,6.18
2022-08-28T06:31:18.605Z,6.35
2022-08-28T06:33:40.227Z,5.80
2022-08-28T06:36:07.795Z,6.18
2022-08-28T06:38:34.806Z,6.30
2022-08-28T06:41:01.632Z,6.30
2022-08-28T06:43:29.815Z,7.15
2022-08-28T06:45:57.928Z,5.88
2022-08-28T06:48:27.693Z,5.93
2022-08-28T06:50:56.972Z,6.30
2022-08-28T06:53:30.707Z,6.05
2022-08-28T06:56:28.430Z,7.00
2022-08-28T06:58:58.289Z,7.38
2022-08-28T07:01:29.610Z,6.63
2022-08-28T07:03:59.581Z,7.68
2022-08-28T07:06:27.496Z,7.00
2022-08-28T07:08:54.174Z,7.00
2022-08-28T07:11:26.086Z,6.88
2022-08-28T07:13:54.065Z,6.78
2022-08-28T07:16:23.484Z,6.65
2022-08-28T07:18:50.386Z,9.80
2022-08-28T07:21:17.239Z,11.02
2022-08-28T07:23:45.255Z,15.80
2022-08-28T07:26:15.348Z,14.05
2022-08-28T07:28:42.493Z,12.23
2022-08-28T07:31:15.792Z,12.15
2022-08-28T07:33:43.628Z,11.52
2022-08-28T07:36:16.067Z,13.30
2022-08-28T07:38:58.992Z,13.18
2022-08-28T07:41:28.352Z,10.68
2022-08-28T07:44:13.884Z,11.55
2022-08-28T07:46:41.366Z,11.65
2022-08-28T07:49:08.865Z,13.20
2022-08-28T07:51:36.444Z,15.50
2022-08-28T07:54:04.041Z,11.93
2022-08-28T07:56:31.918Z,11.25
2022-08-28T07:59:00.335Z,12.15
2022-08-28T08:01:30.782Z,10.95
2022-08-28T08:04:01.507Z,10.13
2022-08-28T08:06:34.116Z,9.18
2022-08-28T08:09:02.585Z,10.27
2022-08-28T08:11:32.470Z,10.02
2022-08-28T08:14:05.538Z,9.38
2022-08-28T08:16:36.113Z,8.90
2022-08-28T08:19:04.022Z,9.23
2022-08-28T08:21:31.505Z,10.80
2022-08-28T08:23:58.775Z,9.57
2022-08-28T08:26:30.140Z,9.82
2022-08-28T08:28:57.391Z,10.57
2022-08-28T08:31:32.309Z,9.02
2022-08-28T08:34:02.427Z,9.05
2022-08-28T08:36:30.720Z,8.35
2022-08-28T08:39:00.357Z,9.13
2022-08-28T08:41:47.948Z,8.57
2022-08-28T08:44:34.546Z,9.32
2022-08-28T08:47:22.554Z,7.85
2022-08-28T08:49:56.192Z,7.47
2022-08-28T08:52:44.040Z,9.18
2022-08-28T08:55:19.771Z,10.02
2022-08-28T08:57:51.279Z,9.82
2022-08-28T09:00:19.707Z,9.43
2022-08-28T09:03:45.105Z,8.73
2022-08-28T09:06:29.696Z,8.55
2022-08-28T09:09:03.209Z,8.20
2022-08-28T09:11:47.427Z,8.38
2022-08-28T09:14:21.810Z,9.07
2022-08-28T09:16:55.524Z,8.18
2022-08-28T09:19:22.685Z,8.98
2022-08-28T09:21:51.657Z,7.30
2022-08-28T09:24:26.081Z,7.50
2022-08-28T09:27:05.727Z,8.17
2022-08-28T09:29:39.089Z,7.97
2022-08-28T09:32:29.890Z,6.32
2022-08-28T09:35:09.093Z,7.13
2022-08-28T09:37:37.123Z,6.55
2022-08-28T09:40:26.308Z,7.97
2022-08-28T09:43:20.367Z,8.07
2022-08-28T09:46:21.053Z,8.73
2022-08-28T09:48:52.311Z,8.13
2022-08-28T09:51:21.820Z,6.70
2022-08-28T09:54:03.754Z,6.70
2022-08-28T09:56:40.017Z,6.20
2022-08-28T09:59:10.715Z,5.35
2022-08-28T10:01:47.291Z,5.13
2022-08-28T10:04:15.114Z,5.38
2022-08-28T10:06:48.384Z,5.95
2022-08-28T10:09:23.470Z,5.93
2022-08-28T10:12:11.910Z,5.35
2022-08-28T10:15:03.627Z,5.60
2022-08-28T10:17:55.036Z,5.82
2022-08-28T10:20:27.747Z,5.93
2022-08-28T10:23:17.886Z,5.55
2022-08-28T10:25:51.672Z,4.40
2022-08-28T10:28:56.297Z,4.03
2022-08-28T10:31:33.537Z,3.83
2022-08-28T10:34:15.532Z,4.03
2022-08-28T10:36:49.420Z,4.88
2022-08-28T10:39:19.103Z,4.22
2022-08-28T10:42:03.231Z,4.22
2022-08-28T10:44:36.942Z,3.88
2022-08-28T10:47:05.622Z,3.70
2022-08-28T10:49:36.950Z,3.20
2022-08-28T10:52:18.180Z,3.53
2022-08-28T10:54:52.295Z,3.65
2022-08-28T10:57:39.492Z,3.28
2022-08-28T11:00:14.267Z,3.53
2022-08-28T11:02:45.154Z,3.50
2022-08-28T11:05:12.997Z,3.60
2022-08-28T11:07:54.607Z,4.28
2022-08-28T11:10:21.421Z,2.90
2022-08-28T11:12:51.687Z,2.80
2022-08-28T11:15:34.233Z,3.00
2022-08-28T11:18:15.852Z,3.10
2022-08-28T11:20:56.933Z,2.80
2022-08-28T11:23:47.972Z,2.90
2022-08-28T11:26:28.701Z,2.67
2022-08-28T11:28:55.786Z,2.88
2022-08-28T11:31:29.400Z,2.90
2022-08-28T11:33:59.226Z,2.78
2022-08-28T11:36:28.232Z,2.67
2022-08-28T11:38:55.296Z,2.65
2022-08-28T11:41:39.987Z,2.30
2022-08-28T11:44:09.460Z,2.45
2022-08-28T11:46:38.763Z,2.60
2022-08-28T11:49:31.671Z,2.70
2022-08-28T11:52:07.081Z,2.35
2022-08-28T11:54:39.973Z,2.58
2022-08-28T11:57:25.598Z,2.50
2022-08-28T11:59:55.358Z,2.45
2022-08-28T12:02:40.533Z,2.70
2022-08-28T12:07:39.516Z,2.50
2022-08-28T12:10:24.696Z,2.17
2022-08-28T12:13:00.538Z,2.58
2022-08-28T12:15:27.216Z,2.92
2022-08-28T12:18:11.929Z,3.00
2022-08-28T12:21:01.432Z,2.35
2022-08-28T12:23:34.673Z,2.78
2022-08-28T12:26:28.368Z,2.30
2022-08-28T12:29:01.837Z,2.33
2022-08-28T12:32:14.514Z,2.40
2022-08-28T12:34:45.769Z,2.28
2022-08-28T12:37:28.055Z,2.30
2022-08-28T12:39:58.218Z,1.58
2022-08-28T12:42:32.844Z,1.58
2022-08-28T12:47:28.955Z,1.70
2022-08-28T12:49:55.834Z,2.00
2022-08-28T12:52:25.549Z,1.80
2022-08-28T12:54:55.334Z,2.40
2022-08-28T12:57:25.248Z,1.80
2022-08-28T12:59:54.923Z,1.80
2022-08-28T13:02:33.444Z,2.08
2022-08-28T13:05:10.236Z,2.15
2022-08-28T13:07:47.141Z,2.20
2022-08-28T13:10:40.247Z,2.10
2022-08-28T13:13:17.813Z,1.70
2022-08-28T13:15:58.582Z,2.20
2022-08-28T13:18:49.704Z,2.00
2022-08-28T13:21:28.659Z,2.05
2022-08-28T13:24:20.526Z,1.90
2022-08-28T13:27:00.673Z,1.95
2022-08-28T13:29:27.648Z,2.13
2022-08-28T13:32:05.131Z,2.13
2022-08-28T13:34:34.324Z,2.00
2022-08-28T13:37:14.980Z,1.80
2022-08-28T13:39:47.428Z,2.03
2022-08-28T13:42:16.802Z,2.45
2022-08-28T13:44:50.775Z,1.77
2022-08-28T13:47:18.039Z,1.90
2022-08-28T13:49:44.979Z,2.00
2022-08-28T13:52:12.779Z,1.70
2022-08-28T13:54:42.530Z,1.63
2022-08-28T13:57:13.546Z,2.08
2022-08-28T13:59:40.465Z,1.55
2022-08-28T14:02:29.897Z,2.03
2022-08-28T14:04:56.770Z,1.73
2022-08-28T14:07:23.739Z,1.80
2022-08-28T14:09:55.502Z,1.80
2022-08-28T14:12:23.094Z,1.70
2022-08-28T14:14:59.959Z,2.40
2022-08-28T14:17:26.747Z,1.83
2022-08-28T14:19:53.628Z,1.80
2022-08-28T14:22:20.443Z,1.70
2022-08-28T14:24:47.160Z,1.60
2022-08-28T14:27:13.913Z,1.50
2022-08-28T14:29:40.614Z,1.80
2022-08-28T14:32:07.643Z,1.70
2022-08-28T14:34:34.907Z,1.73
2022-08-28T14:37:01.847Z,2.47
2022-08-28T14:39:28.726Z,1.70
2022-08-28T14:41:55.675Z,2.17
2022-08-28T14:44:24.290Z,1.83
2022-08-28T14:46:56.924Z,2.22
2022-08-28T14:49:25.924Z,2.10
2022-08-28T14:51:54.090Z,2.13
2022-08-28T14:54:23.089Z,2.42
2022-08-28T14:56:51.138Z,2.20
2022-08-28T14:59:26.367Z,2.33
2022-08-28T15:01:55.638Z,1.90
2022-08-28T15:04:24.316Z,2.20
2022-08-28T15:06:58.800Z,2.20
2022-08-28T15:09:26.253Z,1.73
2022-08-28T15:11:53.325Z,2.00
2022-08-28T15:14:20.413Z,2.00
2022-08-28T15:16:49.371Z,1.90
2022-08-28T15:19:18.303Z,2.00
2022-08-28T15:21:49.442Z,1.92
2022-08-28T15:24:19.176Z,1.65
2022-08-28T15:26:46.950Z,2.00
2022-08-28T15:29:14.264Z,2.17
2022-08-28T15:31:45.687Z,2.13
2022-08-28T15:34:20.327Z,2.13
2022-08-28T15:36:52.851Z,2.00
2022-08-28T15:39:41.206Z,1.83
2022-08-28T15:42:08.516Z,2.00
2022-08-28T15:44:35.415Z,2.10
2022-08-28T15:47:04.831Z,2.17
2022-08-28T15:49:36.104Z,2.03
2022-08-28T15:52:10.618Z,1.80
2022-08-28T15:54:37.804Z,2.45
2022-08-28T15:57:04.593Z,2.15
2022-08-28T15:59:48.396Z,1.90
2022-08-28T16:02:22.462Z,2.17
2022-08-28T16:04:49.747Z,2.00
2022-08-28T16:07:17.312Z,2.25
2022-08-28T16:09:44.092Z,2.22
2022-08-28T16:12:10.811Z,2.53
2022-08-28T16:14:37.486Z,2.20
2022-08-28T16:17:06.031Z,2.10
2022-08-28T16:19:39.875Z,1.80
2022-08-28T16:22:07.906Z,2.33
2022-08-28T16:24:34.914Z,2.13
2022-08-28T16:27:01.642Z,2.05
2022-08-28T16:29:28.484Z,1.90
2022-08-28T16:31:56.693Z,2.15
2022-08-28T16:34:26.128Z,2.38
2022-08-28T16:36:56.169Z,2.35
2022-08-28T16:39:22.869Z,2.22
2022-08-28T16:41:50.195Z,1.98
2022-08-28T16:44:22.138Z,2.05
2022-08-28T16:46:49.327Z,2.40
2022-08-28T16:49:16.157Z,2.40
2022-08-28T16:51:42.984Z,2.30
2022-08-28T16:54:09.759Z,2.40
2022-08-28T16:56:36.675Z,1.83
2022-08-28T16:59:04.420Z,2.00
2022-08-28T17:01:37.970Z,2.33
2022-08-28T17:04:07.738Z,2.30
2022-08-28T17:06:35.440Z,2.15
2022-08-28T17:09:02.162Z,2.28
2022-08-28T17:11:29.372Z,2.25
2022-08-28T17:13:56.868Z,2.30
2022-08-28T17:16:25.476Z,2.42
2022-08-28T17:18:52.945Z,2.30
2022-08-28T17:21:40.184Z,2.17
2022-08-28T17:24:07.908Z,2.42
2022-08-28T17:26:34.668Z,2.35
2022-08-28T17:29:01.490Z,2.00
2022-08-28T17:31:28.222Z,2.50
2022-08-28T17:33:55.263Z,2.95
2022-08-28T17:36:33.070Z,2.28
2022-08-28T17:39:03.085Z,2.60
2022-08-28T17:41:29.903Z,2.65
2022-08-28T17:43:56.915Z,2.50
2022-08-28T17:46:23.739Z,2.85
2022-08-28T17:48:55.547Z,2.90
2022-08-28T17:51:42.527Z,2.70
2022-08-28T17:54:18.861Z,2.92
2022-08-28T17:56:46.387Z,2.67
2022-08-28T17:59:13.993Z,2.90
2022-08-28T18:01:44.654Z,2.80
2022-08-28T18:04:12.377Z,3.10
2022-08-28T18:06:39.419Z,2.92
2022-08-28T18:09:08.443Z,2.97
2022-08-28T18:11:35.861Z,3.10
2022-08-28T18:14:02.776Z,3.63
2022-08-28T18:16:31.928Z,3.00
2022-08-28T18:18:59.905Z,2.85
2022-08-28T18:21:27.218Z,3.17
2022-08-28T18:23:53.922Z,3.40
2022-08-28T18:26:20.809Z,2.80
2022-08-28T18:28:47.650Z,3.30
2022-08-28T18:31:14.497Z,2.53
2022-08-28T18:33:41.264Z,2.90
2022-08-28T18:36:10.168Z,3.20
2022-08-28T18:38:37.664Z,2.50
2022-08-28T18:41:06.434Z,2.80
2022-08-28T18:43:33.461Z,2.72
2022-08-28T18:46:01.540Z,2.78
2022-08-28T18:48:28.992Z,3.17
2022-08-28T18:50:55.793Z,2.50
2022-08-28T18:53:24.216Z,3.40
2022-08-28T18:55:52.699Z,3.05
2022-08-28T18:58:20.097Z,3.00
2022-08-28T19:00:46.819Z,3.13
2022-08-28T19:03:14.613Z,3.55
2022-08-28T19:05:41.712Z,2.95
2022-08-28T19:08:08.476Z,3.67
2022-08-28T19:10:36.863Z,3.47
2022-08-28T19:13:05.483Z,3.60
2022-08-28T19:15:33.169Z,3.22
2022-08-28T19:18:00.492Z,3.75
2022-08-28T19:20:28.135Z,3.63
2022-08-28T19:22:56.242Z,3.35
2022-08-28T19:25:28.265Z,3.58
2022-08-28T19:27:59.248Z,4.15
2022-08-28T19:30:28.142Z,3.38
2022-08-28T19:32:55.210Z,3.97
2022-08-28T19:35:24.464Z,4.80
2022-08-28T19:37:52.203Z,4.03
2022-08-28T19:40:20.598Z,4.07
2022-08-28T19:42:47.988Z,4.32
2022-08-28T19:45:15.126Z,4.20
2022-08-28T19:47:42.092Z,3.63
2022-08-28T19:50:11.048Z,4.20
2022-08-28T19:52:38.461Z,4.82
2022-08-28T19:55:06.582Z,5.28
2022-08-28T19:57:34.540Z,4.72
2022-08-28T20:00:01.938Z,3.83
2022-08-28T20:02:29.466Z,4.70
2022-08-28T20:04:56.434Z,5.68
2022-08-28T20:07:24.805Z,5.35
2022-08-28T20:09:52.116Z,4.88
2022-08-28T20:12:19.697Z,4.70
2022-08-28T20:14:46.966Z,4.80
2022-08-28T20:17:14.103Z,4.97
2022-08-28T20:19:41.382Z,4.55
2022-08-28T20:22:08.603Z,4.57
2022-08-28T20:24:35.675Z,4.57
2022-08-28T20:27:02.460Z,4.20
2022-08-28T20:29:29.215Z,4.10
2022-08-28T20:31:56.391Z,3.88
2022-08-28T20:34:23.507Z,3.85
2022-08-28T20:36:50.281Z,3.80
2022-08-28T20:39:17.501Z,4.82
2022-08-28T20:41:45.926Z,4.07
2022-08-28T20:44:15.465Z,3.83
2022-08-28T20:46:43.820Z,4.57
2022-08-28T20:49:15.867Z,4.20
2022-08-28T20:51:53.410Z,4.30
2022-08-28T20:54:21.843Z,3.97
2022-08-28T20:56:50.660Z,4.50
2022-08-28T20:59:18.228Z,4.30
2022-08-28T21:01:45.586Z,4.22
2022-08-28T21:04:12.513Z,3.90
2022-08-28T21:06:39.234Z,4.00
2022-08-28T21:09:05.948Z,4.20
2022-08-28T21:11:32.674Z,3.92
2022-08-28T21:13:59.588Z,4.10
2022-08-28T21:16:26.337Z,3.97
2022-08-28T21:19:14.620Z,3.97
2022-08-28T21:21:41.110Z,3.55
2022-08-28T21:24:10.936Z,4.10
2022-08-28T21:26:40.765Z,3.63
2022-08-28T21:29:10.092Z,3.95
2022-08-28T21:31:37.528Z,4.00
2022-08-28T21:34:04.297Z,3.90
2022-08-28T21:36:31.581Z,3.90
2022-08-28T21:38:58.489Z,4.68
2022-08-28T21:41:25.235Z,4.97
2022-08-28T21:43:51.955Z,4.32
2022-08-28T21:46:18.980Z,4.80
2022-08-28T21:48:49.247Z,4.50
2022-08-28T21:51:17.831Z,4.53
2022-08-28T21:53:44.883Z,4.25
2022-08-28T21:56:15.195Z,4.72
2022-08-28T21:58:41.883Z,4.25
2022-08-28T22:01:14.156Z,4.28
2022-08-28T22:03:41.790Z,4.97
2022-08-28T22:06:14.404Z,4.80
2022-08-28T22:08:41.930Z,5.07
2022-08-28T22:11:10.611Z,4.53
2022-08-28T22:13:37.747Z,5.20
2022-08-28T22:16:06.074Z,5.38
2022-08-28T22:18:34.124Z,4.70
2022-08-28T22:21:20.192Z,4.88
2022-08-28T22:23:47.704Z,5.50
2022-08-28T22:26:17.689Z,5.05
2022-08-28T22:28:44.508Z,5.00
2022-08-28T22:31:11.555Z,4.85
2022-08-28T22:33:38.792Z,5.70
2022-08-28T22:36:05.740Z,5.22
2022-08-28T22:38:32.738Z,6.00
2022-08-28T22:40:59.480Z,5.78
2022-08-28T22:43:26.748Z,6.55
2022-08-28T22:45:53.535Z,7.13
2022-08-28T22:48:20.281Z,7.63
2022-08-28T22:50:47.883Z,7.60
2022-08-28T22:53:17.152Z,7.50
2022-08-28T22:55:44.853Z,7.90
2022-08-28T22:58:12.919Z,7.40
2022-08-28T23:00:41.720Z,8.18
2022-08-28T23:03:08.530Z,7.63
2022-08-28T23:05:35.592Z,9.15
2022-08-28T23:08:02.480Z,9.05
2022-08-28T23:10:55.171Z,8.50
2022-08-28T23:13:16.288Z,9.20
2022-08-28T23:15:43.861Z,9.18
2022-08-28T23:18:11.181Z,8.15
2022-08-28T23:20:39.332Z,9.00
2022-08-28T23:23:06.384Z,8.07
2022-08-28T23:25:33.618Z,8.27
2022-08-28T23:28:05.873Z,9.35
2022-08-28T23:30:33.947Z,8.75
2022-08-28T23:33:00.663Z,9.38
2022-08-28T23:35:27.756Z,8.65
2022-08-28T23:37:54.531Z,8.32
2022-08-28T23:40:23.628Z,8.30
2022-08-28T23:42:51.889Z,8.20
2022-08-28T23:45:19.304Z,8.70
2022-08-28T23:47:46.933Z,8.55
2022-08-28T23:50:20.972Z,9.35
2022-08-28T23:52:48.395Z,8.98
2022-08-28T23:55:18.139Z,8.85
2022-08-28T23:57:45.981Z,10.27
